sensor_id;sensor_type;location;lat;lon;timestamp;temperature;humidity
28193;DHT22;15473;50.840;3.396;2023-03-31T00:03:17;11.40;99.90
28193;DHT22;15473;50.840;3.396;2023-03-31T00:08:48;11.30;99.90
28193;DHT22;15473;50.840;3.396;2023-03-31T00:11:20;11.30;99.90
28193;DHT22;15473;50.840;3.396;2023-03-31T00:13:57;11.30;99.90
28193;DHT22;15473;50.840;3.396;2023-03-31T00:19:26;11.30;99.90
28193;DHT22;15473;50.840;3.396;2023-03-31T00:21:57;11.20;99.90
28193;DHT22;15473;50.840;3.396;2023-03-31T00:24:35;11.20;99.90
28193;DHT22;15473;50.840;3.396;2023-03-31T00:27:05;11.20;99.90
28193;DHT22;15473;50.840;3.396;2023-03-31T00:29:36;11.20;99.90
28193;DHT22;15473;50.840;3.396;2023-03-31T00:32:08;11.20;99.90
28193;DHT22;15473;50.840;3.396;2023-03-31T00:34:45;11.10;99.90
28193;DHT22;15473;50.840;3.396;2023-03-31T00:37:15;11.10;99.90
28193;DHT22;15473;50.840;3.396;2023-03-31T00:39:51;11.10;99.90
28193;DHT22;15473;50.840;3.396;2023-03-31T00:42:27;11.10;99.90
28193;DHT22;15473;50.840;3.396;2023-03-31T00:45:19;11.10;99.90
28193;DHT22;15473;50.840;3.396;2023-03-31T00:47:59;11.10;99.90
28193;DHT22;15473;50.840;3.396;2023-03-31T00:50:36;11.10;99.90
28193;DHT22;15473;50.840;3.396;2023-03-31T00:53:31;11.10;99.90
28193;DHT22;15473;50.840;3.396;2023-03-31T00:56:10;11.00;99.90
28193;DHT22;15473;50.840;3.396;2023-03-31T00:58:47;11.00;99.90
28193;DHT22;15473;50.840;3.396;2023-03-31T01:01:19;11.00;99.90
28193;DHT22;15473;50.840;3.396;2023-03-31T01:03:53;11.00;99.90
28193;DHT22;15473;50.840;3.396;2023-03-31T01:06:25;11.00;99.90
28193;DHT22;15473;50.840;3.396;2023-03-31T01:11:48;11.00;99.90
28193;DHT22;15473;50.840;3.396;2023-03-31T01:14:18;11.00;99.90
28193;DHT22;15473;50.840;3.396;2023-03-31T01:16:55;11.00;99.90
28193;DHT22;15473;50.840;3.396;2023-03-31T01:22:40;11.00;99.90
28193;DHT22;15473;50.840;3.396;2023-03-31T01:28:22;10.90;99.90
28193;DHT22;15473;50.840;3.396;2023-03-31T01:33:56;11.00;99.90
28193;DHT22;15473;50.840;3.396;2023-03-31T01:48:39;10.90;99.90
28193;DHT22;15473;50.840;3.396;2023-03-31T01:51:26;10.90;99.90
28193;DHT22;15473;50.840;3.396;2023-03-31T01:56:57;10.90;99.90
28193;DHT22;15473;50.840;3.396;2023-03-31T01:59:49;10.90;99.90
28193;DHT22;15473;50.840;3.396;2023-03-31T02:03:01;10.90;99.90
28193;DHT22;15473;50.840;3.396;2023-03-31T02:05:41;10.90;99.90
28193;DHT22;15473;50.840;3.396;2023-03-31T02:08:37;10.80;99.90
28193;DHT22;15473;50.840;3.396;2023-03-31T02:10:47;10.80;99.90
28193;DHT22;15473;50.840;3.396;2023-03-31T02:19:22;10.80;99.90
28193;DHT22;15473;50.840;3.396;2023-03-31T02:22:01;10.80;99.90
28193;DHT22;15473;50.840;3.396;2023-03-31T02:24:34;10.80;99.90
28193;DHT22;15473;50.840;3.396;2023-03-31T02:27:25;10.70;99.90
28193;DHT22;15473;50.840;3.396;2023-03-31T02:30:03;10.70;99.90
28193;DHT22;15473;50.840;3.396;2023-03-31T02:32:44;10.70;99.90
28193;DHT22;15473;50.840;3.396;2023-03-31T02:35:18;10.70;99.90
28193;DHT22;15473;50.840;3.396;2023-03-31T02:37:56;10.70;99.90
28193;DHT22;15473;50.840;3.396;2023-03-31T02:40:33;10.70;99.90
28193;DHT22;15473;50.840;3.396;2023-03-31T02:43:10;10.70;99.90
28193;DHT22;15473;50.840;3.396;2023-03-31T02:45:46;10.60;99.90
28193;DHT22;15473;50.840;3.396;2023-03-31T02:48:28;10.70;99.90
28193;DHT22;15473;50.840;3.396;2023-03-31T03:03:06;10.50;99.90
28193;DHT22;15473;50.840;3.396;2023-03-31T03:08:58;10.40;99.90
28193;DHT22;15473;50.840;3.396;2023-03-31T03:20:05;10.30;99.90
28193;DHT22;15473;50.840;3.396;2023-03-31T03:22:38;10.30;99.90
28193;DHT22;15473;50.840;3.396;2023-03-31T03:25:21;10.30;99.90
28193;DHT22;15473;50.840;3.396;2023-03-31T03:27:52;10.30;99.90
28193;DHT22;15473;50.840;3.396;2023-03-31T03:30:23;10.30;99.90
28193;DHT22;15473;50.840;3.396;2023-03-31T03:33:00;10.20;99.90
28193;DHT22;15473;50.840;3.396;2023-03-31T03:35:37;10.20;99.90
28193;DHT22;15473;50.840;3.396;2023-03-31T03:38:07;10.10;99.90
28193;DHT22;15473;50.840;3.396;2023-03-31T03:40:37;10.10;99.90
28193;DHT22;15473;50.840;3.396;2023-03-31T03:43:13;10.10;99.90
28193;DHT22;15473;50.840;3.396;2023-03-31T03:45:48;10.10;99.90
28193;DHT22;15473;50.840;3.396;2023-03-31T03:48:44;10.10;99.90
28193;DHT22;15473;50.840;3.396;2023-03-31T03:51:16;10.10;99.90
28193;DHT22;15473;50.840;3.396;2023-03-31T03:53:46;10.00;99.90
28193;DHT22;15473;50.840;3.396;2023-03-31T03:56:16;10.00;99.90
28193;DHT22;15473;50.840;3.396;2023-03-31T03:58:53;10.00;99.90
28193;DHT22;15473;50.840;3.396;2023-03-31T04:01:29;10.00;99.90
28193;DHT22;15473;50.840;3.396;2023-03-31T04:04:03;10.00;99.90
28193;DHT22;15473;50.840;3.396;2023-03-31T04:06:37;10.00;99.90
28193;DHT22;15473;50.840;3.396;2023-03-31T04:09:09;10.00;99.90
28193;DHT22;15473;50.840;3.396;2023-03-31T04:11:46;10.00;99.90
28193;DHT22;15473;50.840;3.396;2023-03-31T04:14:23;10.00;99.90
28193;DHT22;15473;50.840;3.396;2023-03-31T04:17:00;9.90;99.90
28193;DHT22;15473;50.840;3.396;2023-03-31T04:19:37;9.90;99.90
28193;DHT22;15473;50.840;3.396;2023-03-31T04:22:11;9.90;99.90
28193;DHT22;15473;50.840;3.396;2023-03-31T04:24:42;9.90;99.90
28193;DHT22;15473;50.840;3.396;2023-03-31T04:27:21;9.90;99.90
28193;DHT22;15473;50.840;3.396;2023-03-31T04:29:58;9.90;99.90
28193;DHT22;15473;50.840;3.396;2023-03-31T04:32:35;9.90;99.90
28193;DHT22;15473;50.840;3.396;2023-03-31T04:35:12;9.90;99.90
28193;DHT22;15473;50.840;3.396;2023-03-31T04:37:43;9.90;99.90
28193;DHT22;15473;50.840;3.396;2023-03-31T04:40:20;9.90;99.90
28193;DHT22;15473;50.840;3.396;2023-03-31T04:42:56;9.90;99.90
28193;DHT22;15473;50.840;3.396;2023-03-31T04:45:26;9.90;99.90
28193;DHT22;15473;50.840;3.396;2023-03-31T04:47:56;9.90;99.90
28193;DHT22;15473;50.840;3.396;2023-03-31T04:50:33;9.90;99.90
28193;DHT22;15473;50.840;3.396;2023-03-31T04:53:17;9.90;99.90
28193;DHT22;15473;50.840;3.396;2023-03-31T04:55:53;9.90;99.90
28193;DHT22;15473;50.840;3.396;2023-03-31T04:58:27;9.90;99.90
28193;DHT22;15473;50.840;3.396;2023-03-31T05:00:57;9.90;99.90
28193;DHT22;15473;50.840;3.396;2023-03-31T05:03:34;10.00;99.90
28193;DHT22;15473;50.840;3.396;2023-03-31T05:06:05;10.00;99.90
28193;DHT22;15473;50.840;3.396;2023-03-31T05:08:35;10.00;99.90
28193;DHT22;15473;50.840;3.396;2023-03-31T05:11:11;10.00;99.90
28193;DHT22;15473;50.840;3.396;2023-03-31T05:13:48;10.00;99.90
28193;DHT22;15473;50.840;3.396;2023-03-31T05:16:19;10.00;99.90
28193;DHT22;15473;50.840;3.396;2023-03-31T05:18:49;10.00;99.90
28193;DHT22;15473;50.840;3.396;2023-03-31T05:21:25;10.10;99.90
28193;DHT22;15473;50.840;3.396;2023-03-31T05:24:03;10.10;99.90
28193;DHT22;15473;50.840;3.396;2023-03-31T05:26:33;10.10;99.90
28193;DHT22;15473;50.840;3.396;2023-03-31T05:29:05;10.10;99.90
28193;DHT22;15473;50.840;3.396;2023-03-31T05:31:42;10.20;99.90
28193;DHT22;15473;50.840;3.396;2023-03-31T05:34:19;10.20;99.90
28193;DHT22;15473;50.840;3.396;2023-03-31T05:36:56;10.20;99.90
28193;DHT22;15473;50.840;3.396;2023-03-31T05:39:26;10.30;99.90
28193;DHT22;15473;50.840;3.396;2023-03-31T05:42:04;10.30;99.90
28193;DHT22;15473;50.840;3.396;2023-03-31T05:44:35;10.30;99.90
28193;DHT22;15473;50.840;3.396;2023-03-31T05:47:12;10.30;99.90
28193;DHT22;15473;50.840;3.396;2023-03-31T05:49:48;10.40;99.90
28193;DHT22;15473;50.840;3.396;2023-03-31T05:52:31;10.40;99.90
28193;DHT22;15473;50.840;3.396;2023-03-31T05:55:08;10.40;99.90
28193;DHT22;15473;50.840;3.396;2023-03-31T05:57:39;10.50;99.90
28193;DHT22;15473;50.840;3.396;2023-03-31T06:00:16;10.60;99.90
28193;DHT22;15473;50.840;3.396;2023-03-31T06:02:53;10.50;99.90
28193;DHT22;15473;50.840;3.396;2023-03-31T06:05:30;10.60;99.90
28193;DHT22;15473;50.840;3.396;2023-03-31T06:08:02;10.70;99.90
28193;DHT22;15473;50.840;3.396;2023-03-31T06:10:38;10.70;99.90
28193;DHT22;15473;50.840;3.396;2023-03-31T06:13:10;10.70;99.90
28193;DHT22;15473;50.840;3.396;2023-03-31T06:15:42;10.70;99.90
28193;DHT22;15473;50.840;3.396;2023-03-31T06:18:19;10.80;99.90
28193;DHT22;15473;50.840;3.396;2023-03-31T06:20:56;10.80;99.90
28193;DHT22;15473;50.840;3.396;2023-03-31T06:23:33;10.80;99.90
28193;DHT22;15473;50.840;3.396;2023-03-31T06:26:19;10.90;99.90
28193;DHT22;15473;50.840;3.396;2023-03-31T06:28:45;11.00;99.90
28193;DHT22;15473;50.840;3.396;2023-03-31T06:31:18;11.00;99.90
28193;DHT22;15473;50.840;3.396;2023-03-31T06:33:55;11.10;99.90
28193;DHT22;15473;50.840;3.396;2023-03-31T06:36:25;11.20;99.90
28193;DHT22;15473;50.840;3.396;2023-03-31T06:39:01;11.30;99.90
28193;DHT22;15473;50.840;3.396;2023-03-31T06:41:32;11.40;99.90
28193;DHT22;15473;50.840;3.396;2023-03-31T06:44:02;11.50;99.90
28193;DHT22;15473;50.840;3.396;2023-03-31T06:46:32;11.60;99.90
28193;DHT22;15473;50.840;3.396;2023-03-31T06:49:10;11.70;99.90
28193;DHT22;15473;50.840;3.396;2023-03-31T06:51:41;11.70;99.90
28193;DHT22;15473;50.840;3.396;2023-03-31T06:54:24;11.80;99.90
28193;DHT22;15473;50.840;3.396;2023-03-31T06:56:55;11.80;99.90
28193;DHT22;15473;50.840;3.396;2023-03-31T06:59:29;11.90;99.90
28193;DHT22;15473;50.840;3.396;2023-03-31T07:02:08;12.00;99.90
28193;DHT22;15473;50.840;3.396;2023-03-31T07:04:38;12.20;99.90
28193;DHT22;15473;50.840;3.396;2023-03-31T07:07:08;12.20;99.90
28193;DHT22;15473;50.840;3.396;2023-03-31T07:09:39;12.30;99.90
28193;DHT22;15473;50.840;3.396;2023-03-31T07:12:11;12.30;99.90
28193;DHT22;15473;50.840;3.396;2023-03-31T07:14:48;12.40;99.90
28193;DHT22;15473;50.840;3.396;2023-03-31T07:17:22;12.40;99.90
28193;DHT22;15473;50.840;3.396;2023-03-31T07:19:53;12.40;99.90
28193;DHT22;15473;50.840;3.396;2023-03-31T07:22:23;12.40;99.90
28193;DHT22;15473;50.840;3.396;2023-03-31T07:24:56;12.40;99.90
28193;DHT22;15473;50.840;3.396;2023-03-31T07:27:26;12.30;99.90
28193;DHT22;15473;50.840;3.396;2023-03-31T07:29:57;12.30;99.90
28193;DHT22;15473;50.840;3.396;2023-03-31T07:32:33;12.40;99.90
28193;DHT22;15473;50.840;3.396;2023-03-31T07:35:11;12.40;99.90
28193;DHT22;15473;50.840;3.396;2023-03-31T07:37:44;12.50;99.90
28193;DHT22;15473;50.840;3.396;2023-03-31T07:40:21;12.50;99.90
28193;DHT22;15473;50.840;3.396;2023-03-31T07:42:57;12.60;99.90
28193;DHT22;15473;50.840;3.396;2023-03-31T07:45:29;12.70;99.90
28193;DHT22;15473;50.840;3.396;2023-03-31T07:48:01;12.70;99.90
28193;DHT22;15473;50.840;3.396;2023-03-31T07:50:31;12.80;99.90
28193;DHT22;15473;50.840;3.396;2023-03-31T07:53:04;12.90;99.90
28193;DHT22;15473;50.840;3.396;2023-03-31T07:55:35;13.10;99.90
28193;DHT22;15473;50.840;3.396;2023-03-31T07:58:05;13.20;99.90
28193;DHT22;15473;50.840;3.396;2023-03-31T08:00:39;13.30;99.90
28193;DHT22;15473;50.840;3.396;2023-03-31T08:03:09;13.30;99.90
28193;DHT22;15473;50.840;3.396;2023-03-31T08:05:39;13.40;99.90
28193;DHT22;15473;50.840;3.396;2023-03-31T08:08:15;13.40;99.90
28193;DHT22;15473;50.840;3.396;2023-03-31T08:10:47;13.40;99.90
28193;DHT22;15473;50.840;3.396;2023-03-31T08:13:24;13.40;99.90
28193;DHT22;15473;50.840;3.396;2023-03-31T08:15:54;13.40;99.90
28193;DHT22;15473;50.840;3.396;2023-03-31T08:18:31;13.60;99.90
28193;DHT22;15473;50.840;3.396;2023-03-31T08:21:08;13.70;99.90
28193;DHT22;15473;50.840;3.396;2023-03-31T08:23:38;13.90;99.90
28193;DHT22;15473;50.840;3.396;2023-03-31T08:26:16;13.90;99.90
28193;DHT22;15473;50.840;3.396;2023-03-31T08:28:48;14.00;99.90
28193;DHT22;15473;50.840;3.396;2023-03-31T08:34:09;14.10;99.90
28193;DHT22;15473;50.840;3.396;2023-03-31T08:36:39;14.10;99.90
28193;DHT22;15473;50.840;3.396;2023-03-31T08:39:11;14.10;99.90
28193;DHT22;15473;50.840;3.396;2023-03-31T08:41:46;14.10;99.90
28193;DHT22;15473;50.840;3.396;2023-03-31T08:44:20;14.10;99.90
28193;DHT22;15473;50.840;3.396;2023-03-31T08:46:50;14.10;99.90
28193;DHT22;15473;50.840;3.396;2023-03-31T08:52:14;13.90;99.90
28193;DHT22;15473;50.840;3.396;2023-03-31T08:54:52;14.00;99.90
28193;DHT22;15473;50.840;3.396;2023-03-31T08:58:17;14.00;99.90
28193;DHT22;15473;50.840;3.396;2023-03-31T09:00:14;14.00;99.90
28193;DHT22;15473;50.840;3.396;2023-03-31T09:03:04;14.00;99.90
28193;DHT22;15473;50.840;3.396;2023-03-31T09:05:49;14.10;99.90
28193;DHT22;15473;50.840;3.396;2023-03-31T09:11:17;14.40;99.90
28193;DHT22;15473;50.840;3.396;2023-03-31T09:16:41;14.30;99.90
28193;DHT22;15473;50.840;3.396;2023-03-31T09:22:03;14.20;99.90
28193;DHT22;15473;50.840;3.396;2023-03-31T09:24:42;14.10;99.90
28193;DHT22;15473;50.840;3.396;2023-03-31T09:27:09;14.10;99.90
28193;DHT22;15473;50.840;3.396;2023-03-31T09:29:48;14.00;99.90
28193;DHT22;15473;50.840;3.396;2023-03-31T09:32:30;13.90;99.90
28193;DHT22;15473;50.840;3.396;2023-03-31T09:35:13;13.80;99.90
28193;DHT22;15473;50.840;3.396;2023-03-31T09:37:51;13.80;99.90
28193;DHT22;15473;50.840;3.396;2023-03-31T09:40:24;13.70;99.90
28193;DHT22;15473;50.840;3.396;2023-03-31T09:43:03;13.60;99.90
28193;DHT22;15473;50.840;3.396;2023-03-31T09:48:28;13.70;99.90
28193;DHT22;15473;50.840;3.396;2023-03-31T09:51:31;13.90;99.90
28193;DHT22;15473;50.840;3.396;2023-03-31T09:54:12;14.10;99.90
28193;DHT22;15473;50.840;3.396;2023-03-31T09:59:33;14.40;99.90
28193;DHT22;15473;50.840;3.396;2023-03-31T10:02:16;14.40;99.90
28193;DHT22;15473;50.840;3.396;2023-03-31T10:04:44;14.40;99.90
28193;DHT22;15473;50.840;3.396;2023-03-31T10:07:19;14.40;99.90
28193;DHT22;15473;50.840;3.396;2023-03-31T10:09:48;14.40;99.90
28193;DHT22;15473;50.840;3.396;2023-03-31T10:12:29;14.30;99.90
28193;DHT22;15473;50.840;3.396;2023-03-31T10:17:51;14.20;99.90
28193;DHT22;15473;50.840;3.396;2023-03-31T10:20:33;14.10;99.90
28193;DHT22;15473;50.840;3.396;2023-03-31T10:26:10;14.10;99.90
28193;DHT22;15473;50.840;3.396;2023-03-31T10:28:40;14.10;99.90
28193;DHT22;15473;50.840;3.396;2023-03-31T10:34:11;14.30;99.90
28193;DHT22;15473;50.840;3.396;2023-03-31T10:36:48;14.30;99.90
28193;DHT22;15473;50.840;3.396;2023-03-31T10:39:20;14.40;99.90
28193;DHT22;15473;50.840;3.396;2023-03-31T10:41:58;14.40;99.90
28193;DHT22;15473;50.840;3.396;2023-03-31T10:44:39;14.40;99.90
28193;DHT22;15473;50.840;3.396;2023-03-31T10:50:05;14.30;99.90
28193;DHT22;15473;50.840;3.396;2023-03-31T10:52:42;14.40;99.90
28193;DHT22;15473;50.840;3.396;2023-03-31T10:55:11;14.60;99.90
28193;DHT22;15473;50.840;3.396;2023-03-31T10:58:01;14.70;99.90
28193;DHT22;15473;50.840;3.396;2023-03-31T11:00:58;14.90;99.90
28193;DHT22;15473;50.840;3.396;2023-03-31T11:26:54;14.80;99.90
28193;DHT22;15473;50.840;3.396;2023-03-31T11:41:17;14.80;99.90
28193;DHT22;15473;50.840;3.396;2023-03-31T11:43:56;14.90;99.90
28193;DHT22;15473;50.840;3.396;2023-03-31T11:46:47;14.90;99.90
28193;DHT22;15473;50.840;3.396;2023-03-31T11:49:40;14.90;99.90
28193;DHT22;15473;50.840;3.396;2023-03-31T11:58:20;15.00;99.90
28193;DHT22;15473;50.840;3.396;2023-03-31T12:04:33;15.80;99.90
28193;DHT22;15473;50.840;3.396;2023-03-31T12:06:30;16.20;99.90
28193;DHT22;15473;50.840;3.396;2023-03-31T12:12:02;16.30;99.90
28193;DHT22;15473;50.840;3.396;2023-03-31T12:14:54;16.30;99.90
28193;DHT22;15473;50.840;3.396;2023-03-31T12:20:01;16.30;99.90
28193;DHT22;15473;50.840;3.396;2023-03-31T12:22:44;16.40;99.90
28193;DHT22;15473;50.840;3.396;2023-03-31T12:25:21;16.50;99.90
28193;DHT22;15473;50.840;3.396;2023-03-31T12:27:53;16.20;99.90
28193;DHT22;15473;50.840;3.396;2023-03-31T12:33:13;16.10;99.90
28193;DHT22;15473;50.840;3.396;2023-03-31T12:35:47;16.20;99.90
28193;DHT22;15473;50.840;3.396;2023-03-31T12:41:35;17.00;99.90
28193;DHT22;15473;50.840;3.396;2023-03-31T12:44:15;17.10;99.90
28193;DHT22;15473;50.840;3.396;2023-03-31T12:47:06;17.10;99.90
28193;DHT22;15473;50.840;3.396;2023-03-31T12:52:56;17.10;99.90
28193;DHT22;15473;50.840;3.396;2023-03-31T13:01:13;16.50;99.90
28193;DHT22;15473;50.840;3.396;2023-03-31T13:11:51;15.60;99.90
28193;DHT22;15473;50.840;3.396;2023-03-31T13:14:36;15.30;99.90
28193;DHT22;15473;50.840;3.396;2023-03-31T13:23:33;14.80;99.90
28193;DHT22;15473;50.840;3.396;2023-03-31T13:25:49;14.70;99.90
28193;DHT22;15473;50.840;3.396;2023-03-31T13:28:25;14.60;99.90
28193;DHT22;15473;50.840;3.396;2023-03-31T13:34:00;14.40;99.90
28193;DHT22;15473;50.840;3.396;2023-03-31T13:36:40;14.20;99.90
28193;DHT22;15473;50.840;3.396;2023-03-31T13:45:36;13.90;99.90
28193;DHT22;15473;50.840;3.396;2023-03-31T13:49:02;13.80;99.90
28193;DHT22;15473;50.840;3.396;2023-03-31T13:52:00;13.70;99.90
28193;DHT22;15473;50.840;3.396;2023-03-31T14:06:22;13.80;99.90
28193;DHT22;15473;50.840;3.396;2023-03-31T14:09:19;13.80;99.90
28193;DHT22;15473;50.840;3.396;2023-03-31T14:11:46;13.80;99.90
28193;DHT22;15473;50.840;3.396;2023-03-31T14:14:17;13.80;99.90
28193;DHT22;15473;50.840;3.396;2023-03-31T14:16:57;13.90;99.90
28193;DHT22;15473;50.840;3.396;2023-03-31T14:26:03;13.90;99.90
28193;DHT22;15473;50.840;3.396;2023-03-31T14:28:13;13.80;99.90
28193;DHT22;15473;50.840;3.396;2023-03-31T14:36:59;13.60;99.90
28193;DHT22;15473;50.840;3.396;2023-03-31T14:39:43;13.60;99.90
28193;DHT22;15473;50.840;3.396;2023-03-31T14:42:17;13.60;99.90
28193;DHT22;15473;50.840;3.396;2023-03-31T14:44:48;13.50;99.90
28193;DHT22;15473;50.840;3.396;2023-03-31T14:47:27;13.50;99.90
28193;DHT22;15473;50.840;3.396;2023-03-31T14:50:21;13.50;99.90
28193;DHT22;15473;50.840;3.396;2023-03-31T14:52:48;13.40;99.90
28193;DHT22;15473;50.840;3.396;2023-03-31T14:55:27;13.30;99.90
28193;DHT22;15473;50.840;3.396;2023-03-31T14:58:00;13.10;99.90
28193;DHT22;15473;50.840;3.396;2023-03-31T15:00:34;13.00;99.90
28193;DHT22;15473;50.840;3.396;2023-03-31T15:03:13;12.90;99.90
28193;DHT22;15473;50.840;3.396;2023-03-31T15:05:45;12.80;99.90
28193;DHT22;15473;50.840;3.396;2023-03-31T15:08:23;12.70;99.90
28193;DHT22;15473;50.840;3.396;2023-03-31T15:10:56;12.60;99.90
28193;DHT22;15473;50.840;3.396;2023-03-31T15:13:50;12.50;99.90
28193;DHT22;15473;50.840;3.396;2023-03-31T15:19:17;12.40;99.90
28193;DHT22;15473;50.840;3.396;2023-03-31T15:22:11;12.40;99.90
28193;DHT22;15473;50.840;3.396;2023-03-31T15:24:42;12.40;99.90
28193;DHT22;15473;50.840;3.396;2023-03-31T15:30:28;12.70;99.90
28193;DHT22;15473;50.840;3.396;2023-03-31T15:33:06;12.80;99.90
28193;DHT22;15473;50.840;3.396;2023-03-31T15:35:37;12.80;99.90
28193;DHT22;15473;50.840;3.396;2023-03-31T15:38:11;12.90;99.90
28193;DHT22;15473;50.840;3.396;2023-03-31T15:40:48;12.90;99.90
28193;DHT22;15473;50.840;3.396;2023-03-31T15:43:29;13.00;99.90
28193;DHT22;15473;50.840;3.396;2023-03-31T15:46:00;13.10;99.90
28193;DHT22;15473;50.840;3.396;2023-03-31T15:48:32;13.10;99.90
28193;DHT22;15473;50.840;3.396;2023-03-31T15:51:17;13.10;99.90
28193;DHT22;15473;50.840;3.396;2023-03-31T15:53:51;13.10;99.90
28193;DHT22;15473;50.840;3.396;2023-03-31T15:56:42;13.10;99.90
28193;DHT22;15473;50.840;3.396;2023-03-31T15:59:24;13.10;99.90
28193;DHT22;15473;50.840;3.396;2023-03-31T16:01:57;13.00;99.90
28193;DHT22;15473;50.840;3.396;2023-03-31T16:04:31;13.00;99.90
28193;DHT22;15473;50.840;3.396;2023-03-31T16:07:07;12.90;99.90
28193;DHT22;15473;50.840;3.396;2023-03-31T16:09:47;12.90;99.90
28193;DHT22;15473;50.840;3.396;2023-03-31T16:12:30;12.80;99.90
28193;DHT22;15473;50.840;3.396;2023-03-31T16:15:04;12.80;99.90
28193;DHT22;15473;50.840;3.396;2023-03-31T16:17:47;12.80;99.90
28193;DHT22;15473;50.840;3.396;2023-03-31T16:23:25;12.80;99.90
28193;DHT22;15473;50.840;3.396;2023-03-31T16:25:57;12.90;99.90
28193;DHT22;15473;50.840;3.396;2023-03-31T16:31:35;12.90;99.90
28193;DHT22;15473;50.840;3.396;2023-03-31T16:34:10;12.80;99.90
28193;DHT22;15473;50.840;3.396;2023-03-31T16:36:46;12.70;99.90
28193;DHT22;15473;50.840;3.396;2023-03-31T16:39:17;12.70;99.90
28193;DHT22;15473;50.840;3.396;2023-03-31T16:41:47;12.60;99.90
28193;DHT22;15473;50.840;3.396;2023-03-31T16:44:17;12.50;99.90
28193;DHT22;15473;50.840;3.396;2023-03-31T16:46:53;12.30;99.90
28193;DHT22;15473;50.840;3.396;2023-03-31T16:49:24;12.20;99.90
28193;DHT22;15473;50.840;3.396;2023-03-31T16:51:58;12.20;99.90
28193;DHT22;15473;50.840;3.396;2023-03-31T16:54:35;12.00;99.90
28193;DHT22;15473;50.840;3.396;2023-03-31T16:57:11;11.90;99.90
28193;DHT22;15473;50.840;3.396;2023-03-31T16:59:41;11.80;99.90
28193;DHT22;15473;50.840;3.396;2023-03-31T17:02:19;11.70;99.90
28193;DHT22;15473;50.840;3.396;2023-03-31T17:04:49;11.60;99.90
28193;DHT22;15473;50.840;3.396;2023-03-31T17:07:19;11.60;99.90
28193;DHT22;15473;50.840;3.396;2023-03-31T17:09:51;11.50;99.90
28193;DHT22;15473;50.840;3.396;2023-03-31T17:12:22;11.40;99.90
28193;DHT22;15473;50.840;3.396;2023-03-31T17:14:52;11.40;99.90
28193;DHT22;15473;50.840;3.396;2023-03-31T17:17:26;11.30;99.90
28193;DHT22;15473;50.840;3.396;2023-03-31T17:19:57;11.30;99.90
28193;DHT22;15473;50.840;3.396;2023-03-31T17:22:27;11.20;99.90
28193;DHT22;15473;50.840;3.396;2023-03-31T17:24:57;11.20;99.90
28193;DHT22;15473;50.840;3.396;2023-03-31T17:27:28;11.10;99.90
28193;DHT22;15473;50.840;3.396;2023-03-31T17:29:58;11.10;99.90
28193;DHT22;15473;50.840;3.396;2023-03-31T17:32:30;11.10;99.90
28193;DHT22;15473;50.840;3.396;2023-03-31T17:35:00;11.10;99.90
28193;DHT22;15473;50.840;3.396;2023-03-31T17:37:31;11.10;99.90
28193;DHT22;15473;50.840;3.396;2023-03-31T17:40:02;11.00;99.90
28193;DHT22;15473;50.840;3.396;2023-03-31T17:42:39;11.00;99.90
28193;DHT22;15473;50.840;3.396;2023-03-31T17:45:10;11.00;99.90
28193;DHT22;15473;50.840;3.396;2023-03-31T17:47:42;10.90;99.90
28193;DHT22;15473;50.840;3.396;2023-03-31T17:50:19;10.90;99.90
28193;DHT22;15473;50.840;3.396;2023-03-31T17:52:49;10.90;99.90
28193;DHT22;15473;50.840;3.396;2023-03-31T17:55:19;10.80;99.90
28193;DHT22;15473;50.840;3.396;2023-03-31T17:57:51;10.80;99.90
28193;DHT22;15473;50.840;3.396;2023-03-31T18:00:21;10.70;99.90
28193;DHT22;15473;50.840;3.396;2023-03-31T18:02:57;10.70;99.90
28193;DHT22;15473;50.840;3.396;2023-03-31T18:05:35;10.70;99.90
28193;DHT22;15473;50.840;3.396;2023-03-31T18:08:07;10.70;99.90
28193;DHT22;15473;50.840;3.396;2023-03-31T18:10:38;10.60;99.90
28193;DHT22;15473;50.840;3.396;2023-03-31T18:13:14;10.60;99.90
28193;DHT22;15473;50.840;3.396;2023-03-31T18:15:51;10.60;99.90
28193;DHT22;15473;50.840;3.396;2023-03-31T18:18:23;10.50;99.90
28193;DHT22;15473;50.840;3.396;2023-03-31T18:21:06;10.50;99.90
28193;DHT22;15473;50.840;3.396;2023-03-31T18:23:37;10.50;99.90
28193;DHT22;15473;50.840;3.396;2023-03-31T18:29:00;10.40;99.90
28193;DHT22;15473;50.840;3.396;2023-03-31T18:31:30;10.40;99.90
28193;DHT22;15473;50.840;3.396;2023-03-31T18:34:00;10.40;99.90
28193;DHT22;15473;50.840;3.396;2023-03-31T18:36:34;10.40;99.90
28193;DHT22;15473;50.840;3.396;2023-03-31T18:39:11;10.30;99.90
28193;DHT22;15473;50.840;3.396;2023-03-31T18:44:34;10.30;99.90
28193;DHT22;15473;50.840;3.396;2023-03-31T18:47:04;10.30;99.90
28193;DHT22;15473;50.840;3.396;2023-03-31T18:49:40;10.30;99.90
28193;DHT22;15473;50.840;3.396;2023-03-31T18:52:16;10.30;99.90
28193;DHT22;15473;50.840;3.396;2023-03-31T18:54:48;10.20;99.90
28193;DHT22;15473;50.840;3.396;2023-03-31T18:57:19;10.20;99.90
28193;DHT22;15473;50.840;3.396;2023-03-31T18:59:49;10.20;99.90
28193;DHT22;15473;50.840;3.396;2023-03-31T19:02:21;10.20;99.90
28193;DHT22;15473;50.840;3.396;2023-03-31T19:04:58;10.20;99.90
28193;DHT22;15473;50.840;3.396;2023-03-31T19:07:33;10.20;99.90
28193;DHT22;15473;50.840;3.396;2023-03-31T19:10:03;10.10;99.90
28193;DHT22;15473;50.840;3.396;2023-03-31T19:12:49;10.10;99.90
28193;DHT22;15473;50.840;3.396;2023-03-31T19:15:20;10.10;99.90
28193;DHT22;15473;50.840;3.396;2023-03-31T19:17:57;10.10;99.90
28193;DHT22;15473;50.840;3.396;2023-03-31T19:20:31;10.10;99.90
28193;DHT22;15473;50.840;3.396;2023-03-31T19:23:05;10.10;99.90
28193;DHT22;15473;50.840;3.396;2023-03-31T19:25:35;10.10;99.90
28193;DHT22;15473;50.840;3.396;2023-03-31T19:28:15;10.10;99.90
28193;DHT22;15473;50.840;3.396;2023-03-31T19:30:53;10.10;99.90
28193;DHT22;15473;50.840;3.396;2023-03-31T19:33:26;10.10;99.90
28193;DHT22;15473;50.840;3.396;2023-03-31T19:36:03;10.10;99.90
28193;DHT22;15473;50.840;3.396;2023-03-31T19:38:33;10.10;99.90
28193;DHT22;15473;50.840;3.396;2023-03-31T19:41:11;10.10;99.90
28193;DHT22;15473;50.840;3.396;2023-03-31T19:43:48;10.10;99.90
28193;DHT22;15473;50.840;3.396;2023-03-31T19:46:24;10.10;99.90
28193;DHT22;15473;50.840;3.396;2023-03-31T19:48:54;10.10;99.90
28193;DHT22;15473;50.840;3.396;2023-03-31T19:51:31;10.10;99.90
28193;DHT22;15473;50.840;3.396;2023-03-31T19:54:10;10.10;99.90
28193;DHT22;15473;50.840;3.396;2023-03-31T19:56:49;10.00;99.90
28193;DHT22;15473;50.840;3.396;2023-03-31T19:59:26;10.00;99.90
28193;DHT22;15473;50.840;3.396;2023-03-31T20:02:03;10.00;99.90
28193;DHT22;15473;50.840;3.396;2023-03-31T20:04:34;10.10;99.90
28193;DHT22;15473;50.840;3.396;2023-03-31T20:07:11;10.00;99.90
28193;DHT22;15473;50.840;3.396;2023-03-31T20:09:48;10.00;99.90
28193;DHT22;15473;50.840;3.396;2023-03-31T20:12:19;10.00;99.90